Time;durP1;ratioP1;P1;durP2;ratioP2;P2;SDS_P1;SDS_P2;PMS_P1;PMS_P2;Temp;Humidity;BMP_temperature;BMP_pressure;BME280_temperature;BME280_humidity;BME280_pressure;Samples;Min_cycle;Max_cycle;Signal;HPM_P1;HPM_P2
2023/11/28 00:02:12;;;;;;;6.53;2.80;;;1.40;99.90;;;;;;5061430;28;20436;-73
2023/11/28 00:04:38;;;;;;;7.28;3.13;;;1.30;99.90;;;;;;5060535;28;20092;-73
2023/11/28 00:07:03;;;;;;;5.53;2.70;;;1.30;99.90;;;;;;5061760;28;20037;-73
2023/11/28 00:09:29;;;;;;;4.65;2.55;;;1.30;99.90;;;;;;5061787;28;20040;-72
2023/11/28 00:11:55;;;;;;;6.00;3.08;;;1.30;99.90;;;;;;5062184;28;20072;-74
2023/11/28 00:14:21;;;;;;;5.15;2.60;;;1.30;99.90;;;;;;5062225;28;20017;-74
2023/11/28 00:16:46;;;;;;;5.57;2.83;;;1.20;99.90;;;;;;5061827;28;20033;-73
2023/11/28 00:19:12;;;;;;;6.78;3.13;;;1.20;99.90;;;;;;5061658;28;20033;-73
2023/11/28 00:21:38;;;;;;;6.03;2.38;;;1.20;99.90;;;;;;5061619;28;20541;-75
2023/11/28 00:24:04;;;;;;;4.32;2.30;;;1.20;99.90;;;;;;5059008;28;20051;-75
2023/11/28 00:26:30;;;;;;;6.20;2.45;;;1.20;99.90;;;;;;5061530;28;20139;-76
2023/11/28 00:28:56;;;;;;;3.15;1.95;;;1.20;99.90;;;;;;5061814;28;20021;-74
2023/11/28 00:31:21;;;;;;;5.35;2.10;;;1.20;99.90;;;;;;5059396;28;20489;-72
2023/11/28 00:33:47;;;;;;;4.72;2.33;;;1.10;99.90;;;;;;5061650;28;20021;-75
2023/11/28 00:36:16;;;;;;;4.30;1.80;;;1.20;99.90;;;;;;5060197;28;20703;-75
2023/11/28 00:38:42;;;;;;;4.03;2.00;;;1.20;99.90;;;;;;5061370;28;20067;-72
2023/11/28 00:41:09;;;;;;;3.53;1.83;;;1.20;99.90;;;;;;5061122;28;20025;-75
2023/11/28 00:43:35;;;;;;;6.30;1.95;;;1.20;99.90;;;;;;5060943;28;20017;-74
2023/11/28 00:46:01;;;;;;;4.30;2.15;;;1.20;99.90;;;;;;5061311;28;20029;-75
2023/11/28 00:48:27;;;;;;;3.30;2.15;;;1.10;99.90;;;;;;5060405;28;20578;-72
2023/11/28 00:50:53;;;;;;;3.65;2.08;;;1.10;99.90;;;;;;5060336;28;20029;-73
2023/11/28 00:53:23;;;;;;;5.88;1.98;;;1.10;99.90;;;;;;5060454;28;20021;-74
2023/11/28 00:55:49;;;;;;;2.97;1.83;;;1.10;99.90;;;;;;5061141;28;20029;-75
2023/11/28 00:58:14;;;;;;;3.22;2.10;;;1.10;99.90;;;;;;5060478;28;20064;-74
2023/11/28 01:00:40;;;;;;;4.40;2.33;;;1.10;99.90;;;;;;5061129;28;20474;-75
2023/11/28 01:03:08;;;;;;;5.55;2.20;;;1.10;99.90;;;;;;5061172;28;20040;-76
2023/11/28 01:05:34;;;;;;;7.00;2.03;;;1.10;99.90;;;;;;5060533;28;20055;-73
2023/11/28 01:08:00;;;;;;;4.32;1.90;;;1.00;99.90;;;;;;5059628;28;20025;-75
2023/11/28 01:10:26;;;;;;;3.42;1.85;;;1.10;99.90;;;;;;5061401;28;20020;-75
2023/11/28 01:12:52;;;;;;;3.42;1.77;;;1.00;99.90;;;;;;5061190;28;20050;-74
2023/11/28 01:15:18;;;;;;;3.95;1.83;;;1.00;99.90;;;;;;5059750;28;20028;-74
2023/11/28 01:17:43;;;;;;;4.00;2.08;;;1.00;99.90;;;;;;5059472;28;20119;-75
2023/11/28 01:20:10;;;;;;;5.93;2.58;;;1.00;99.90;;;;;;5060914;28;20068;-73
2023/11/28 01:22:36;;;;;;;4.90;2.42;;;1.00;99.90;;;;;;5059005;28;20028;-73
2023/11/28 01:25:03;;;;;;;5.28;2.83;;;1.00;99.90;;;;;;5059741;28;20029;-74
2023/11/28 01:27:29;;;;;;;6.15;2.45;;;1.00;99.90;;;;;;5060753;28;20102;-76
2023/11/28 01:29:54;;;;;;;4.00;2.13;;;1.00;99.90;;;;;;5059634;28;20490;-75
2023/11/28 01:32:20;;;;;;;5.38;2.35;;;1.00;99.90;;;;;;5060233;28;20433;-73
2023/11/28 01:34:45;;;;;;;7.20;2.78;;;0.90;99.90;;;;;;5061072;28;20037;-75
2023/11/28 01:37:13;;;;;;;6.28;3.13;;;1.00;99.90;;;;;;5060413;28;20040;-73
2023/11/28 01:39:39;;;;;;;5.18;2.58;;;1.00;99.90;;;;;;5060757;28;20024;-75
2023/11/28 01:42:05;;;;;;;5.63;2.60;;;0.90;99.90;;;;;;5060494;28;20060;-75
2023/11/28 01:44:31;;;;;;;4.35;2.50;;;1.00;99.90;;;;;;5060171;28;20029;-76
2023/11/28 01:46:58;;;;;;;6.05;2.83;;;1.00;99.90;;;;;;5060748;28;20047;-75
2023/11/28 01:49:30;;;;;;;7.10;2.97;;;1.00;99.90;;;;;;5060361;28;20087;-76
2023/11/28 01:51:57;;;;;;;8.32;3.63;;;1.00;99.90;;;;;;5059676;28;20035;-75
2023/11/28 01:54:24;;;;;;;6.32;3.13;;;1.00;99.90;;;;;;5060611;28;20025;-76
2023/11/28 01:56:51;;;;;;;6.93;3.67;;;1.00;99.90;;;;;;5058820;28;20037;-75
2023/11/28 01:59:16;;;;;;;6.18;3.35;;;1.00;99.90;;;;;;5057381;28;20044;-76
2023/11/28 02:01:43;;;;;;;8.25;4.13;;;1.00;99.90;;;;;;5060418;28;20025;-75
2023/11/28 02:04:09;;;;;;;7.53;3.67;;;1.00;99.90;;;;;;5060516;28;20018;-76
2023/11/28 02:06:35;;;;;;;8.60;3.70;;;1.00;99.90;;;;;;5064183;28;20103;-77
2023/11/28 02:09:01;;;;;;;8.00;3.80;;;1.00;99.90;;;;;;5062814;28;20075;-76
2023/11/28 02:11:26;;;;;;;6.85;3.90;;;1.00;99.90;;;;;;5061595;28;20025;-76
2023/11/28 02:13:52;;;;;;;6.22;3.50;;;1.00;99.90;;;;;;5063608;28;20054;-76
2023/11/28 02:16:17;;;;;;;6.72;3.50;;;1.00;99.90;;;;;;5063937;28;20094;-74
2023/11/28 02:18:43;;;;;;;8.93;3.90;;;1.00;99.90;;;;;;5062458;28;20233;-78
2023/11/28 02:21:13;;;;;;;9.50;4.03;;;1.00;99.90;;;;;;5063588;28;20029;-74
2023/11/28 02:23:39;;;;;;;7.07;3.67;;;1.00;99.90;;;;;;5062005;28;20029;-74
2023/11/28 02:26:17;;;;;;;8.30;3.25;;;1.00;99.90;;;;;;5063134;28;20093;-74
2023/11/28 02:28:42;;;;;;;7.88;3.83;;;1.00;99.90;;;;;;5062960;28;20060;-74
2023/11/28 02:31:09;;;;;;;6.53;3.70;;;1.00;99.90;;;;;;5063702;28;20036;-75
2023/11/28 02:33:35;;;;;;;7.22;3.92;;;1.00;99.90;;;;;;5063721;28;20025;-75
2023/11/28 02:36:01;;;;;;;7.90;3.70;;;1.10;99.90;;;;;;5062736;28;20021;-76
2023/11/28 02:38:27;;;;;;;7.18;3.58;;;1.10;99.90;;;;;;5063630;28;20072;-77
2023/11/28 02:40:54;;;;;;;6.72;4.00;;;1.10;99.90;;;;;;5062030;28;20715;-75
2023/11/28 02:43:20;;;;;;;8.30;3.47;;;1.10;99.90;;;;;;5062447;28;20055;-74
2023/11/28 02:45:45;;;;;;;8.15;3.65;;;1.20;99.90;;;;;;5063415;28;20703;-77
2023/11/28 02:48:12;;;;;;;8.48;3.42;;;1.30;99.90;;;;;;5063109;28;20031;-75
2023/11/28 02:50:38;;;;;;;9.27;3.92;;;1.30;99.90;;;;;;5063542;28;20021;-75
2023/11/28 02:53:04;;;;;;;7.00;3.60;;;1.30;99.90;;;;;;5063316;28;20017;-75
2023/11/28 02:55:30;;;;;;;10.07;4.03;;;1.30;99.90;;;;;;5063405;28;20029;-76
2023/11/28 02:58:00;;;;;;;7.55;3.88;;;1.40;99.90;;;;;;5063740;28;20052;-75
2023/11/28 03:00:30;;;;;;;8.02;4.32;;;1.40;99.90;;;;;;5063247;28;20013;-75
2023/11/28 03:02:57;;;;;;;12.75;4.40;;;1.40;99.90;;;;;;5062075;28;20544;-76
2023/11/28 03:05:23;;;;;;;9.70;4.28;;;1.50;99.90;;;;;;5062603;28;20021;-75
2023/11/28 03:07:49;;;;;;;8.95;4.30;;;1.50;99.90;;;;;;5061700;28;20139;-75
2023/11/28 03:10:15;;;;;;;7.43;3.88;;;1.50;99.90;;;;;;5062081;28;20032;-75
2023/11/28 03:12:41;;;;;;;10.90;5.00;;;1.50;99.90;;;;;;5062763;28;20032;-77
2023/11/28 03:15:07;;;;;;;9.63;4.47;;;1.60;99.90;;;;;;5063028;28;20107;-75
2023/11/28 03:17:33;;;;;;;8.88;4.25;;;1.60;99.90;;;;;;5060473;28;20395;-73
2023/11/28 03:19:58;;;;;;;8.07;3.97;;;1.60;99.90;;;;;;5062728;28;20041;-74
2023/11/28 03:22:24;;;;;;;11.27;4.57;;;1.60;99.90;;;;;;5062771;28;20048;-75
2023/11/28 03:24:50;;;;;;;11.70;5.13;;;1.60;99.90;;;;;;5061391;28;20032;-74
2023/11/28 03:27:18;;;;;;;11.63;4.30;;;1.60;99.90;;;;;;5062668;28;20080;-76
2023/11/28 03:29:44;;;;;;;8.88;4.68;;;1.60;99.90;;;;;;5062396;28;20021;-75
2023/11/28 03:32:10;;;;;;;12.13;5.13;;;1.60;99.90;;;;;;5061881;28;20458;-74
2023/11/28 03:34:38;;;;;;;7.93;3.80;;;1.60;99.90;;;;;;5062589;28;20424;-74
2023/11/28 03:37:05;;;;;;;10.93;4.63;;;1.60;99.90;;;;;;5060497;28;20017;-74
2023/11/28 03:39:30;;;;;;;11.15;4.85;;;1.60;99.90;;;;;;5062405;28;20041;-74
2023/11/28 03:41:56;;;;;;;13.13;4.45;;;1.60;99.90;;;;;;5062437;28;20495;-74
2023/11/28 03:44:22;;;;;;;8.20;3.83;;;1.60;99.90;;;;;;5061768;28;20397;-73
2023/11/28 03:46:47;;;;;;;8.02;4.07;;;1.60;99.90;;;;;;5060708;28;20028;-73
2023/11/28 03:49:13;;;;;;;9.45;4.53;;;1.60;99.90;;;;;;5061947;28;20028;-74
2023/11/28 03:51:38;;;;;;;8.60;4.35;;;1.60;99.90;;;;;;5062209;28;20041;-74
2023/11/28 03:54:04;;;;;;;8.82;4.18;;;1.60;99.90;;;;;;5061974;28;20013;-74
2023/11/28 03:56:30;;;;;;;10.93;4.35;;;1.60;99.90;;;;;;5060342;28;20028;-73
2023/11/28 03:58:55;;;;;;;9.13;4.00;;;1.60;99.90;;;;;;5059607;28;20063;-74
2023/11/28 04:01:22;;;;;;;8.05;4.00;;;1.60;99.90;;;;;;5056951;28;20033;-76
2023/11/28 04:03:48;;;;;;;8.05;3.97;;;1.60;99.90;;;;;;5061478;28;20029;-73
2023/11/28 04:06:13;;;;;;;8.68;4.00;;;1.60;99.90;;;;;;5061266;28;20112;-72
2023/11/28 04:08:39;;;;;;;8.30;3.80;;;1.50;99.90;;;;;;5059485;28;20456;-72
2023/11/28 04:11:05;;;;;;;6.68;3.35;;;1.50;99.90;;;;;;5060542;28;20177;-72
2023/11/28 04:13:32;;;;;;;7.93;4.15;;;1.60;99.90;;;;;;5061147;28;20059;-73
2023/11/28 04:15:58;;;;;;;9.90;4.32;;;1.60;99.90;;;;;;5061515;28;20024;-73
2023/11/28 04:18:24;;;;;;;9.45;4.40;;;1.60;99.90;;;;;;5061610;28;20474;-75
2023/11/28 04:20:49;;;;;;;9.48;4.57;;;1.60;99.90;;;;;;5060135;28;20033;-73
2023/11/28 04:23:15;;;;;;;9.25;4.25;;;1.60;99.90;;;;;;5060797;28;20041;-74
2023/11/28 04:25:41;;;;;;;10.18;4.88;;;1.70;99.90;;;;;;5060901;28;20077;-74
2023/11/28 04:28:11;;;;;;;10.85;4.68;;;1.60;99.90;;;;;;5059156;28;20089;-73
2023/11/28 04:30:36;;;;;;;13.45;4.70;;;1.70;99.90;;;;;;5058310;28;20028;-72
2023/11/28 04:33:02;;;;;;;12.68;4.60;;;1.70;99.90;;;;;;5060609;28;20029;-74
2023/11/28 04:35:28;;;;;;;11.45;5.13;;;1.70;99.90;;;;;;5060769;28;20101;-73
2023/11/28 04:37:53;;;;;;;10.43;4.53;;;1.60;99.90;;;;;;5060326;28;20962;-70
2023/11/28 04:40:19;;;;;;;15.05;5.07;;;1.60;99.90;;;;;;5060696;28;20040;-72
2023/11/28 04:42:45;;;;;;;12.43;4.93;;;1.60;99.90;;;;;;5058023;28;20488;-72
2023/11/28 04:45:11;;;;;;;8.60;4.80;;;1.60;99.90;;;;;;5061181;28;20055;-72
2023/11/28 04:47:37;;;;;;;9.15;4.80;;;1.60;99.90;;;;;;5060278;28;20027;-73
2023/11/28 04:50:04;;;;;;;12.05;5.22;;;1.70;99.90;;;;;;5060925;28;20099;-74
2023/11/28 04:52:30;;;;;;;10.65;5.03;;;1.70;99.90;;;;;;5060407;28;20039;-74
2023/11/28 04:54:55;;;;;;;11.48;4.75;;;1.70;99.90;;;;;;5060426;28;20028;-75
2023/11/28 04:57:21;;;;;;;12.20;5.00;;;1.60;99.90;;;;;;5059732;28;20043;-73
2023/11/28 04:59:47;;;;;;;11.52;4.60;;;1.60;99.90;;;;;;5060014;28;20147;-73
2023/11/28 05:02:13;;;;;;;10.20;5.18;;;1.60;99.90;;;;;;5059898;28;20037;-75
2023/11/28 05:04:40;;;;;;;9.98;4.60;;;1.60;99.90;;;;;;5060212;28;20017;-76
2023/11/28 05:07:05;;;;;;;10.90;5.13;;;1.60;99.90;;;;;;5058453;28;20035;-73
2023/11/28 05:09:31;;;;;;;7.68;4.15;;;1.60;99.90;;;;;;5060302;28;20049;-76
2023/11/28 05:11:57;;;;;;;19.95;4.90;;;1.60;99.90;;;;;;5058826;28;20051;-74
2023/11/28 05:14:22;;;;;;;14.05;4.35;;;1.60;99.90;;;;;;5060601;28;20037;-74
2023/11/28 05:16:48;;;;;;;8.77;3.95;;;1.60;99.90;;;;;;5060536;28;20085;-75
2023/11/28 05:19:15;;;;;;;12.20;4.40;;;1.60;99.90;;;;;;5059336;28;20040;-74
2023/11/28 05:21:40;;;;;;;7.95;4.00;;;1.60;99.90;;;;;;5058581;28;20103;-76
2023/11/28 05:24:08;;;;;;;9.50;4.13;;;1.60;99.90;;;;;;5060521;28;20057;-74
2023/11/28 05:26:34;;;;;;;7.97;4.50;;;1.70;99.90;;;;;;5059555;28;20435;-75
2023/11/28 05:29:00;;;;;;;11.25;4.78;;;1.70;99.90;;;;;;5058600;28;20029;-75
2023/11/28 05:31:26;;;;;;;12.40;4.25;;;1.70;99.90;;;;;;5060623;28;20021;-73
2023/11/28 05:33:51;;;;;;;7.82;4.10;;;1.60;99.90;;;;;;5060367;28;20052;-73
2023/11/28 05:36:17;;;;;;;6.72;4.43;;;1.60;99.90;;;;;;5058792;28;20029;-75
2023/11/28 05:38:43;;;;;;;8.95;4.15;;;1.60;99.90;;;;;;5058840;28;20029;-74
2023/11/28 05:41:09;;;;;;;7.57;3.85;;;1.60;99.90;;;;;;5063413;28;20025;-72
2023/11/28 05:43:35;;;;;;;9.82;4.20;;;1.60;99.90;;;;;;5058911;28;20402;-75
2023/11/28 05:46:00;;;;;;;6.63;4.03;;;1.60;99.90;;;;;;5063776;28;20024;-73
2023/11/28 05:48:26;;;;;;;7.18;4.30;;;1.50;99.90;;;;;;5062717;28;20021;-77
2023/11/28 05:50:53;;;;;;;8.57;4.40;;;1.50;99.90;;;;;;5064322;28;20024;-76
2023/11/28 05:53:19;;;;;;;8.48;4.03;;;1.50;99.90;;;;;;5062431;28;20025;-76
2023/11/28 05:55:46;;;;;;;10.77;4.38;;;1.50;99.90;;;;;;5062063;28;20025;-76
2023/11/28 05:58:12;;;;;;;8.68;3.80;;;1.50;99.90;;;;;;5062293;28;20047;-74
2023/11/28 06:00:37;;;;;;;8.95;3.92;;;1.50;99.90;;;;;;5061921;28;20084;-76
2023/11/28 06:03:04;;;;;;;6.85;3.25;;;1.50;99.90;;;;;;5063750;28;20040;-73
2023/11/28 06:05:30;;;;;;;6.63;3.38;;;1.50;99.90;;;;;;5062288;28;20084;-74
2023/11/28 06:07:56;;;;;;;7.95;3.70;;;1.50;99.90;;;;;;5060887;28;20048;-75
2023/11/28 06:10:22;;;;;;;8.55;3.33;;;1.60;99.90;;;;;;5061668;28;20538;-74
2023/11/28 06:12:48;;;;;;;6.55;3.30;;;1.60;99.90;;;;;;5063563;28;20081;-75
2023/11/28 06:15:14;;;;;;;5.32;3.40;;;1.60;99.90;;;;;;5063784;28;20053;-73
2023/11/28 06:17:40;;;;;;;8.57;3.50;;;1.60;99.90;;;;;;5061384;28;20029;-74
2023/11/28 06:20:06;;;;;;;7.47;3.53;;;1.60;99.90;;;;;;5061037;28;20108;-74
2023/11/28 06:22:32;;;;;;;8.77;3.40;;;1.60;99.90;;;;;;5058967;28;20031;-75
2023/11/28 06:24:58;;;;;;;6.65;3.25;;;1.60;99.90;;;;;;5061013;28;20029;-74
2023/11/28 06:27:24;;;;;;;6.25;3.60;;;1.60;99.90;;;;;;5063701;28;20040;-75
2023/11/28 06:29:49;;;;;;;9.90;3.65;;;1.60;99.90;;;;;;5063348;28;20490;-75
2023/11/28 06:32:15;;;;;;;11.32;4.35;;;1.60;99.90;;;;;;5063170;28;20059;-76
2023/11/28 06:34:41;;;;;;;9.45;3.70;;;1.50;99.90;;;;;;5063499;28;20029;-75
2023/11/28 06:37:07;;;;;;;7.53;3.70;;;1.50;99.90;;;;;;5061390;28;20045;-75
2023/11/28 06:39:33;;;;;;;6.15;3.58;;;1.50;99.90;;;;;;5063806;28;20044;-73
2023/11/28 06:42:00;;;;;;;9.88;3.88;;;1.50;99.90;;;;;;5062982;28;20120;-76
2023/11/28 06:44:27;;;;;;;6.07;3.90;;;1.40;99.90;;;;;;5055728;28;20053;-77
2023/11/28 06:46:53;;;;;;;7.18;3.67;;;1.40;99.90;;;;;;5060215;28;20074;-73
2023/11/28 06:49:19;;;;;;;6.45;3.70;;;1.40;99.90;;;;;;5059217;28;20033;-74
2023/11/28 06:51:45;;;;;;;7.15;3.67;;;1.40;99.90;;;;;;5059475;28;20021;-73
2023/11/28 06:54:11;;;;;;;6.75;3.45;;;1.40;99.90;;;;;;5060903;28;20093;-75
2023/11/28 06:56:37;;;;;;;7.72;3.97;;;1.40;99.90;;;;;;5063413;28;20108;-74
2023/11/28 06:59:03;;;;;;;7.07;3.50;;;1.40;99.90;;;;;;5061142;28;20065;-74
2023/11/28 07:01:29;;;;;;;8.55;4.05;;;1.40;99.90;;;;;;5054229;28;20029;-75
2023/11/28 07:03:55;;;;;;;9.38;4.05;;;1.40;99.90;;;;;;5062114;28;21020;-73
2023/11/28 07:06:21;;;;;;;6.90;3.83;;;1.40;99.90;;;;;;5061866;28;20021;-72
2023/11/28 07:08:47;;;;;;;8.23;3.65;;;1.40;99.90;;;;;;5062085;28;20033;-74
2023/11/28 07:11:19;;;;;;;8.23;4.05;;;1.40;99.90;;;;;;5061877;28;20083;-74
2023/11/28 07:13:49;;;;;;;10.73;3.78;;;1.50;99.90;;;;;;5062116;28;21030;-76
2023/11/28 07:16:15;;;;;;;8.02;4.18;;;1.50;99.90;;;;;;5062533;28;20081;-74
2023/11/28 07:18:41;;;;;;;5.82;3.45;;;1.50;99.90;;;;;;5062697;28;20025;-73
2023/11/28 07:21:08;;;;;;;7.07;3.47;;;1.40;99.90;;;;;;5060251;28;20056;-75
2023/11/28 07:23:34;;;;;;;5.57;3.35;;;1.40;99.90;;;;;;5062986;28;20021;-73
2023/11/28 07:26:00;;;;;;;6.53;3.60;;;1.40;99.90;;;;;;5062118;28;20138;-74
2023/11/28 07:28:25;;;;;;;6.57;3.30;;;1.30;99.90;;;;;;5062465;28;20473;-75
2023/11/28 07:30:51;;;;;;;7.38;3.47;;;1.30;99.90;;;;;;5062576;28;20043;-76
2023/11/28 07:33:18;;;;;;;7.93;3.30;;;1.30;99.90;;;;;;5062125;28;20028;-74
2023/11/28 07:35:44;;;;;;;5.55;2.90;;;1.30;99.90;;;;;;5061133;28;20033;-73
2023/11/28 07:38:10;;;;;;;6.47;2.97;;;1.40;99.90;;;;;;5062188;28;20210;-73
2023/11/28 07:40:37;;;;;;;5.85;3.47;;;1.40;99.90;;;;;;5062670;28;20528;-73
2023/11/28 07:43:03;;;;;;;6.65;3.67;;;1.50;99.90;;;;;;5061689;28;20095;-74
2023/11/28 07:45:29;;;;;;;6.47;3.80;;;1.40;99.90;;;;;;5062330;28;20057;-72
2023/11/28 07:47:56;;;;;;;6.20;3.40;;;1.40;99.90;;;;;;5060704;28;20032;-75
2023/11/28 07:50:22;;;;;;;5.57;3.40;;;1.40;99.90;;;;;;5062155;28;20138;-74
2023/11/28 07:52:48;;;;;;;8.43;4.00;;;1.40;99.90;;;;;;5061881;28;20036;-75
2023/11/28 07:55:13;;;;;;;6.70;3.60;;;1.40;99.90;;;;;;5061882;28;20020;-73
2023/11/28 07:57:39;;;;;;;8.05;3.92;;;1.40;99.90;;;;;;5057909;28;20033;-75
2023/11/28 08:00:07;;;;;;;7.05;4.03;;;1.40;99.90;;;;;;5057271;28;20025;-75
2023/11/28 08:02:35;;;;;;;6.53;3.83;;;1.40;99.90;;;;;;5058379;28;20025;-73
2023/11/28 08:05:02;;;;;;;6.50;3.92;;;1.40;99.90;;;;;;5060708;28;20136;-75
2023/11/28 08:07:32;;;;;;;6.03;3.72;;;1.40;99.90;;;;;;5059351;28;20115;-75
2023/11/28 08:09:59;;;;;;;8.38;4.00;;;1.50;99.90;;;;;;5058742;28;20024;-76
2023/11/28 08:12:25;;;;;;;7.38;3.80;;;1.50;99.90;;;;;;5054393;28;20076;-76
2023/11/28 08:14:52;;;;;;;7.47;3.47;;;1.50;99.90;;;;;;5057985;28;20090;-72
2023/11/28 08:17:18;;;;;;;6.63;3.60;;;1.50;99.90;;;;;;5058615;28;20525;-74
2023/11/28 08:19:44;;;;;;;6.90;4.10;;;1.50;99.90;;;;;;5058264;28;20037;-75
2023/11/28 08:22:09;;;;;;;6.05;3.55;;;1.50;99.90;;;;;;5060728;28;20153;-73
2023/11/28 08:24:35;;;;;;;5.68;3.65;;;1.50;99.90;;;;;;5061037;28;20036;-74
2023/11/28 08:27:00;;;;;;;6.57;3.20;;;1.60;99.90;;;;;;5058484;28;20543;-73
2023/11/28 08:29:26;;;;;;;7.32;3.60;;;1.60;99.90;;;;;;5061482;28;20028;-74
2023/11/28 08:31:52;;;;;;;6.28;3.70;;;1.60;99.90;;;;;;5060344;28;20473;-72
2023/11/28 08:34:19;;;;;;;7.22;3.97;;;1.50;99.90;;;;;;5059819;28;20081;-73
2023/11/28 08:36:46;;;;;;;7.82;4.00;;;1.50;99.90;;;;;;5060167;28;20021;-74
2023/11/28 08:39:14;;;;;;;7.47;3.97;;;1.50;99.90;;;;;;5059948;28;20497;-73
2023/11/28 08:41:41;;;;;;;9.05;3.72;;;1.40;99.90;;;;;;5058610;28;20972;-70
2023/11/28 08:44:07;;;;;;;6.35;4.20;;;1.40;99.90;;;;;;5054550;28;20417;-74
2023/11/28 08:46:35;;;;;;;7.25;3.88;;;1.40;99.90;;;;;;5055891;28;20033;-76
2023/11/28 08:49:04;;;;;;;7.13;3.72;;;1.40;99.90;;;;;;5054817;28;20128;-76
2023/11/28 08:51:30;;;;;;;8.55;4.13;;;1.40;99.90;;;;;;5057703;28;20069;-77
2023/11/28 08:53:56;;;;;;;7.88;3.97;;;1.40;99.90;;;;;;5057982;28;20032;-73
2023/11/28 08:56:23;;;;;;;8.10;4.45;;;1.40;99.90;;;;;;5061055;28;20032;-74
2023/11/28 08:58:49;;;;;;;7.25;3.90;;;1.40;99.90;;;;;;5056869;28;20041;-74
2023/11/28 09:01:23;;;;;;;8.10;4.22;;;1.50;99.90;;;;;;5057434;28;20555;-76
2023/11/28 09:03:50;;;;;;;7.38;4.25;;;1.40;99.90;;;;;;5055363;28;20104;-73
2023/11/28 09:06:17;;;;;;;7.13;3.92;;;1.40;99.90;;;;;;5057494;28;20021;-76
2023/11/28 09:08:42;;;;;;;7.25;4.15;;;1.40;99.90;;;;;;5055100;28;20033;-73
2023/11/28 09:11:08;;;;;;;8.00;4.50;;;1.40;99.90;;;;;;5057457;28;20382;-75
2023/11/28 09:13:34;;;;;;;7.80;4.10;;;1.50;99.90;;;;;;5057116;28;20020;-74
2023/11/28 09:16:05;;;;;;;8.85;4.20;;;1.40;99.90;;;;;;5058029;28;20068;-75
2023/11/28 09:18:31;;;;;;;8.18;4.13;;;1.40;99.90;;;;;;5060405;28;20101;-78
2023/11/28 09:20:56;;;;;;;8.65;4.95;;;1.40;99.90;;;;;;5060838;28;20032;-74
2023/11/28 09:23:22;;;;;;;9.10;4.25;;;1.40;99.90;;;;;;5061062;28;20021;-75
2023/11/28 09:25:48;;;;;;;10.77;3.95;;;1.40;99.90;;;;;;5058790;28;20029;-74
2023/11/28 09:28:16;;;;;;;7.97;4.75;;;1.40;99.90;;;;;;5061094;28;20029;-74
2023/11/28 09:30:42;;;;;;;11.50;4.38;;;1.40;99.90;;;;;;5058938;28;20033;-74
2023/11/28 09:33:08;;;;;;;7.65;4.40;;;1.40;99.90;;;;;;5060602;28;20021;-74
2023/11/28 09:35:33;;;;;;;9.07;4.10;;;1.40;99.90;;;;;;5060807;28;20021;-73
2023/11/28 09:37:59;;;;;;;6.45;4.05;;;1.50;99.90;;;;;;5060910;28;20033;-75
2023/11/28 09:40:25;;;;;;;7.88;3.97;;;1.50;99.90;;;;;;5060090;28;20021;-73
2023/11/28 09:42:52;;;;;;;7.00;4.13;;;1.50;99.90;;;;;;5060279;28;20064;-73
2023/11/28 09:45:19;;;;;;;8.27;3.95;;;1.50;99.90;;;;;;5059373;28;20478;-74
2023/11/28 09:47:47;;;;;;;9.38;4.55;;;1.60;99.90;;;;;;5060508;28;20031;-73
2023/11/28 09:50:14;;;;;;;9.82;4.60;;;1.60;99.90;;;;;;5059496;28;20021;-73
2023/11/28 09:52:45;;;;;;;14.65;5.00;;;1.60;99.90;;;;;;5059436;28;20024;-74
2023/11/28 09:55:14;;;;;;;7.72;4.30;;;1.70;99.90;;;;;;5058717;28;20032;-75
2023/11/28 09:57:44;;;;;;;7.20;4.28;;;1.70;99.90;;;;;;5057865;28;20025;-75
2023/11/28 10:00:17;;;;;;;9.43;3.85;;;1.80;99.90;;;;;;5055263;28;20039;-77
2023/11/28 10:02:44;;;;;;;7.90;4.72;;;1.80;99.90;;;;;;5058712;28;20070;-76
2023/11/28 10:05:10;;;;;;;5.95;3.85;;;1.80;99.90;;;;;;5060685;28;20104;-75
2023/11/28 10:07:42;;;;;;;7.82;4.22;;;1.70;99.90;;;;;;5060173;28;20017;-74
2023/11/28 10:10:09;;;;;;;6.57;3.90;;;1.70;99.90;;;;;;5060508;28;20017;-75
2023/11/28 10:12:36;;;;;;;7.10;3.88;;;1.60;99.90;;;;;;5057520;28;20809;-76
2023/11/28 10:15:08;;;;;;;8.07;4.18;;;1.70;99.90;;;;;;5058297;28;20549;-76
2023/11/28 10:17:37;;;;;;;9.43;4.55;;;1.70;99.90;;;;;;5057226;28;20028;-75
2023/11/28 10:20:06;;;;;;;13.00;4.90;;;1.70;99.90;;;;;;5058893;28;20033;-76
2023/11/28 10:22:37;;;;;;;7.55;4.75;;;1.60;99.90;;;;;;5057841;28;20039;-76
2023/11/28 10:25:06;;;;;;;9.13;4.65;;;1.50;99.90;;;;;;5059986;28;20047;-77
2023/11/28 10:27:39;;;;;;;7.53;4.50;;;1.50;99.90;;;;;;5063688;28;20025;-76
2023/11/28 10:30:23;;;;;;;8.77;4.20;;;1.50;99.90;;;;;;5063723;28;20032;-75
2023/11/28 10:32:49;;;;;;;9.68;4.45;;;1.50;99.90;;;;;;5062737;28;20037;-76
2023/11/28 10:35:16;;;;;;;10.07;6.00;;;1.50;99.90;;;;;;5062256;28;20025;-74
2023/11/28 10:37:42;;;;;;;11.60;5.93;;;1.50;99.90;;;;;;5063502;28;20029;-76
2023/11/28 10:40:18;;;;;;;10.70;4.95;;;1.50;99.90;;;;;;5063675;28;20023;-75
2023/11/28 10:42:46;;;;;;;9.02;4.90;;;1.50;99.90;;;;;;5062652;28;20041;-75
2023/11/28 10:45:15;;;;;;;8.80;4.28;;;1.50;99.90;;;;;;5061609;28;20021;-75
2023/11/28 10:47:42;;;;;;;11.63;4.68;;;1.50;99.90;;;;;;5062892;28;20021;-76
2023/11/28 10:50:09;;;;;;;12.68;5.55;;;1.50;99.90;;;;;;5062997;28;20021;-74
2023/11/28 10:52:37;;;;;;;11.65;5.78;;;1.50;99.90;;;;;;5062744;28;20021;-75
2023/11/28 10:55:08;;;;;;;12.32;5.72;;;1.50;99.90;;;;;;5063496;28;20017;-75
2023/11/28 10:57:51;;;;;;;10.77;4.90;;;1.60;99.90;;;;;;5062734;28;20025;-74
2023/11/28 11:00:21;;;;;;;12.30;4.47;;;1.60;99.90;;;;;;5061803;28;20120;-77
2023/11/28 11:02:48;;;;;;;10.80;4.72;;;1.60;99.90;;;;;;5063334;28;21431;-74
2023/11/28 11:05:14;;;;;;;9.30;4.43;;;1.60;99.90;;;;;;5062951;28;20111;-75
2023/11/28 11:07:40;;;;;;;9.82;4.63;;;1.50;99.90;;;;;;5063179;28;20051;-75
2023/11/28 11:10:08;;;;;;;8.75;4.80;;;1.60;99.90;;;;;;5063216;28;20028;-75
2023/11/28 11:12:37;;;;;;;8.65;4.90;;;1.50;99.90;;;;;;5061635;28;20037;-77
2023/11/28 11:15:35;;;;;;;9.95;4.45;;;1.50;99.90;;;;;;5062953;28;20021;-76
2023/11/28 11:18:12;;;;;;;9.20;4.60;;;1.50;99.90;;;;;;5062766;28;20048;-73
2023/11/28 11:20:39;;;;;;;8.90;5.07;;;1.50;99.90;;;;;;5060874;28;20047;-78
2023/11/28 11:23:07;;;;;;;8.55;4.43;;;1.50;99.90;;;;;;5062783;28;20025;-75
2023/11/28 11:25:43;;;;;;;9.30;5.07;;;1.50;99.90;;;;;;5061112;28;20032;-74
2023/11/28 11:28:09;;;;;;;11.80;5.00;;;1.50;99.90;;;;;;5062900;28;20033;-74
2023/11/28 11:30:39;;;;;;;9.60;4.78;;;1.50;99.90;;;;;;5062295;28;20023;-76
2023/11/28 11:33:24;;;;;;;11.07;5.15;;;1.50;99.90;;;;;;5062510;28;20032;-76
2023/11/28 11:36:12;;;;;;;13.18;6.43;;;1.50;99.90;;;;;;5062537;28;20071;-75
2023/11/28 11:38:38;;;;;;;16.15;5.78;;;1.50;99.90;;;;;;5061347;28;20055;-75
2023/11/28 11:41:05;;;;;;;18.92;8.82;;;1.40;99.90;;;;;;5061143;28;20016;-76
2023/11/28 11:43:41;;;;;;;20.40;11.20;;;1.40;99.90;;;;;;5062058;28;20071;-76
2023/11/28 11:46:14;;;;;;;13.02;6.68;;;1.50;99.90;;;;;;5060830;28;20035;-77
2023/11/28 11:48:41;;;;;;;11.20;5.07;;;1.40;99.90;;;;;;5062299;28;20025;-75
2023/11/28 11:51:07;;;;;;;11.02;5.00;;;1.40;99.90;;;;;;5062313;28;20024;-75
2023/11/28 11:53:39;;;;;;;11.35;4.60;;;1.40;99.90;;;;;;5061624;28;20067;-77
2023/11/28 11:56:06;;;;;;;9.70;4.43;;;1.40;99.90;;;;;;5060823;28;20028;-74
2023/11/28 11:58:31;;;;;;;9.18;4.55;;;1.40;99.90;;;;;;5061742;28;20033;-74
2023/11/28 12:01:01;;;;;;;9.07;4.97;;;1.40;99.90;;;;;;5060991;28;20021;-75
2023/11/28 12:03:28;;;;;;;8.80;4.50;;;1.40;99.90;;;;;;5062106;28;20021;-78
2023/11/28 12:05:58;;;;;;;10.85;4.75;;;1.30;99.90;;;;;;5060421;28;20092;-76
2023/11/28 12:08:24;;;;;;;9.40;4.95;;;1.30;99.90;;;;;;5061191;28;20020;-74
2023/11/28 12:11:04;;;;;;;8.02;4.55;;;1.30;99.90;;;;;;5061715;28;20090;-76
2023/11/28 12:13:29;;;;;;;9.52;5.15;;;1.30;99.90;;;;;;5060739;28;20025;-76
2023/11/28 12:16:01;;;;;;;10.30;5.35;;;1.20;99.90;;;;;;5060870;28;20055;-75
2023/11/28 12:18:27;;;;;;;11.25;5.00;;;1.30;99.90;;;;;;5059575;28;20033;-75
2023/11/28 12:20:53;;;;;;;9.45;4.63;;;1.20;99.90;;;;;;5060630;28;20029;-73
2023/11/28 12:23:18;;;;;;;9.57;5.00;;;1.20;99.90;;;;;;5061632;28;20037;-75
2023/11/28 12:25:44;;;;;;;10.32;5.07;;;1.20;99.90;;;;;;5061193;28;20055;-73
2023/11/28 12:28:10;;;;;;;9.27;5.25;;;1.20;99.90;;;;;;5061642;28;20101;-76
2023/11/28 12:30:36;;;;;;;9.57;4.65;;;1.20;99.90;;;;;;5061464;28;20029;-73
2023/11/28 12:33:02;;;;;;;14.63;6.97;;;1.10;99.90;;;;;;5061544;28;20021;-74
2023/11/28 12:35:28;;;;;;;23.58;10.27;;;1.20;99.90;;;;;;5061395;28;20021;-74
2023/11/28 12:37:55;;;;;;;12.32;6.43;;;1.10;99.90;;;;;;5060394;28;20115;-74
2023/11/28 12:40:22;;;;;;;12.80;6.05;;;1.20;99.90;;;;;;5061606;28;20029;-74
2023/11/28 12:42:54;;;;;;;18.38;8.13;;;1.20;99.90;;;;;;5059165;28;20076;-75
2023/11/28 12:45:26;;;;;;;14.88;6.63;;;1.20;99.90;;;;;;5061111;28;20036;-73
2023/11/28 12:47:53;;;;;;;9.27;5.57;;;1.30;99.90;;;;;;5061186;28;20028;-74
2023/11/28 12:50:22;;;;;;;10.45;5.57;;;1.30;99.90;;;;;;5060721;28;20016;-73
2023/11/28 12:52:48;;;;;;;13.77;5.93;;;1.30;99.90;;;;;;5060618;28;20123;-74
2023/11/28 12:55:14;;;;;;;10.18;5.22;;;1.40;99.90;;;;;;5059725;28;20695;-77